Toledo, Iowa
Current Conditions -  °F | °C
As of 8:53 PM on Sunday 21 Dec 2014 (Local Time) from KMIW Reporting Station
Overcast Overcast  
Wind Chill: 32°   Ceiling: 900
Heat Index: 40°   Visibility: 8mi
Dew Point: 38°   Wind: 15mph
Humidity: 93%   Direction: 150°SSE
Pressure: 29.79"   Gusts: NA
Location:  42°N, 92.58°W
Report Text: KMIW 220253Z AUTO 15013KT 8SM OVC009 04/03 A2979 RMK AO2 SLP093 T00440033 58008
Loading
Personal Weather Stations






























Interactive Weather Map New forecast layout! Learn more

10-Day Weather Forecast

Advertisements
Track Severe Weather on mobile